AFL2845 USHH-USNN
Flight info
| Callsign | AFL2845 |
|---|---|
| Flight time | N/A |
| Altitude | 29000 |
| Route | KUPEN1C KUPEN L870 ULGUN M59 TETSI TETSI1T |
| Aircraft | A20N/M-SDE2E3FGHIRWXY/LB1 |
Departure
| Time | 2026-04-21 15:56 |
|---|---|
| Airport | Khanty Mansiysk Airport (USHH) |
Arrival
| Time | N/A |
|---|---|
| Airport | Nizhnevartovsk Airport (USNN) |
| Time | Latitude | Longitude | Altitude | Speed | Heading |
|---|---|---|---|---|---|
| 2026-04-21 15:37 | 61.02792 | 69.09741 | 140 ft | 0 kts | 345° |
| 2026-04-21 15:50 | 61.02797 | 69.09737 | 140 ft | 1 kts | 336° |
| 2026-04-21 15:50 | 61.02813 | 69.09705 | 140 ft | 4 kts | 297° |
| 2026-04-21 15:51 | 61.02810 | 69.09617 | 139 ft | 8 kts | 257° |
| 2026-04-21 15:51 | 61.02788 | 69.09463 | 138 ft | 12 kts | 255° |
| 2026-04-21 15:51 | 61.02763 | 69.09265 | 137 ft | 15 kts | 255° |
| 2026-04-21 15:51 | 61.02735 | 69.09033 | 137 ft | 17 kts | 255° |
| 2026-04-21 15:52 | 61.02704 | 69.08784 | 137 ft | 18 kts | 255° |
| 2026-04-21 15:52 | 61.02669 | 69.08516 | 137 ft | 19 kts | 258° |
| 2026-04-21 15:52 | 61.02632 | 69.08242 | 136 ft | 20 kts | 256° |
| 2026-04-21 15:52 | 61.02593 | 69.07936 | 133 ft | 23 kts | 257° |
| 2026-04-21 15:53 | 61.02552 | 69.07615 | 133 ft | 23 kts | 255° |
| 2026-04-21 15:53 | 61.02570 | 69.07306 | 133 ft | 22 kts | 313° |
| 2026-04-21 15:53 | 61.02689 | 69.07337 | 133 ft | 20 kts | 64° |
| 2026-04-21 15:53 | 61.02720 | 69.07500 | 133 ft | 0 kts | 75° |
| 2026-04-21 15:54 | 61.02720 | 69.07501 | 133 ft | 0 kts | 75° |
| 2026-04-21 15:55 | 61.02721 | 69.07501 | 133 ft | 0 kts | 75° |
| 2026-04-21 15:56 | 61.02787 | 69.08029 | 134 ft | 81 kts | 75° |
| 2026-04-21 15:56 | 61.02987 | 69.09621 | 141 ft | 148 kts | 73° |
| 2026-04-21 15:56 | 61.03261 | 69.11811 | 693 ft | 161 kts | 77° |
| 2026-04-21 15:56 | 61.03540 | 69.13961 | 1674 ft | 155 kts | 80° |
| 2026-04-21 15:57 | 61.03811 | 69.16075 | 2426 ft | 159 kts | 81° |
| 2026-04-21 15:57 | 61.04072 | 69.18214 | 2847 ft | 178 kts | 81° |
| 2026-04-21 15:57 | 61.04415 | 69.21002 | 3366 ft | 201 kts | 80° |
| 2026-04-21 15:57 | 61.04763 | 69.23928 | 3973 ft | 219 kts | 81° |
| 2026-04-21 15:58 | 61.05106 | 69.27068 | 4596 ft | 237 kts | 81° |
| 2026-04-21 15:58 | 61.05480 | 69.30509 | 5321 ft | 250 kts | 80° |
| 2026-04-21 15:58 | 61.05856 | 69.33967 | 6251 ft | 256 kts | 79° |
| 2026-04-21 15:58 | 61.06243 | 69.37545 | 7152 ft | 261 kts | 79° |
| 2026-04-21 15:59 | 61.06641 | 69.41242 | 8016 ft | 268 kts | 78° |
| 2026-04-21 15:59 | 61.07049 | 69.45036 | 8835 ft | 275 kts | 78° |
| 2026-04-21 15:59 | 61.07462 | 69.48896 | 9645 ft | 283 kts | 77° |
| 2026-04-21 15:59 | 61.07887 | 69.52879 | 10443 ft | 291 kts | 77° |
| 2026-04-21 16:00 | 61.08330 | 69.57029 | 10953 ft | 307 kts | 76° |
| 2026-04-21 16:00 | 61.08799 | 69.61442 | 11415 ft | 325 kts | 76° |
| 2026-04-21 16:00 | 61.09291 | 69.66097 | 11956 ft | 339 kts | 77° |
| 2026-04-21 16:00 | 61.09792 | 69.70869 | 12681 ft | 347 kts | 77° |
| 2026-04-21 16:01 | 61.10301 | 69.75768 | 13444 ft | 351 kts | 76° |
| 2026-04-21 16:01 | 61.10812 | 69.80695 | 14214 ft | 355 kts | 76° |
| 2026-04-21 16:01 | 61.11329 | 69.85702 | 14980 ft | 359 kts | 76° |
| 2026-04-21 16:01 | 61.11846 | 69.90709 | 15733 ft | 362 kts | 76° |
| 2026-04-21 16:02 | 61.12280 | 69.95873 | 16503 ft | 366 kts | 82° |
| 2026-04-21 16:02 | 61.12443 | 70.01060 | 17251 ft | 368 kts | 86° |
| 2026-04-21 16:02 | 61.12535 | 70.06364 | 17999 ft | 370 kts | 86° |
| 2026-04-21 16:02 | 61.12624 | 70.11643 | 18716 ft | 370 kts | 85° |
| 2026-04-21 16:03 | 61.12727 | 70.16957 | 19464 ft | 371 kts | 85° |
| 2026-04-21 16:03 | 61.12841 | 70.22257 | 20227 ft | 370 kts | 85° |
| 2026-04-21 16:03 | 61.12951 | 70.27050 | 20901 ft | 370 kts | 85° |
| 2026-04-21 16:03 | 61.13078 | 70.32492 | 21669 ft | 368 kts | 85° |
| 2026-04-21 16:04 | 61.13202 | 70.37712 | 22418 ft | 366 kts | 85° |
| 2026-04-21 16:04 | 61.13325 | 70.42932 | 23162 ft | 363 kts | 85° |
| 2026-04-21 16:04 | 61.13445 | 70.48073 | 23901 ft | 360 kts | 84° |
| 2026-04-21 16:04 | 61.13563 | 70.53169 | 24631 ft | 355 kts | 84° |
| 2026-04-21 16:05 | 61.13678 | 70.58208 | 25373 ft | 349 kts | 85° |
| 2026-04-21 16:05 | 61.13788 | 70.63095 | 26112 ft | 343 kts | 85° |
| 2026-04-21 16:05 | 61.13899 | 70.68041 | 26598 ft | 346 kts | 86° |
| 2026-04-21 16:05 | 61.14008 | 70.73052 | 27056 ft | 349 kts | 86° |
| 2026-04-21 16:06 | 61.14115 | 70.78108 | 27429 ft | 355 kts | 86° |
| 2026-04-21 16:06 | 61.14223 | 70.83215 | 27639 ft | 366 kts | 86° |
| 2026-04-21 16:06 | 61.14333 | 70.88587 | 27867 ft | 376 kts | 86° |
| 2026-04-21 16:06 | 61.14444 | 70.94030 | 28083 ft | 387 kts | 86° |
| 2026-04-21 16:07 | 61.14556 | 70.99656 | 28350 ft | 396 kts | 86° |
| 2026-04-21 16:07 | 61.14665 | 71.05366 | 28721 ft | 401 kts | 86° |
| 2026-04-21 16:07 | 61.14776 | 71.11156 | 29069 ft | 407 kts | 86° |
| 2026-04-21 16:07 | 61.14885 | 71.17020 | 29116 ft | 422 kts | 86° |
| 2026-04-21 16:08 | 61.15111 | 71.29592 | 29131 ft | 452 kts | 86° |
| 2026-04-21 16:08 | 61.15224 | 71.36080 | 29125 ft | 457 kts | 86° |
| 2026-04-21 16:09 | 61.15437 | 71.49258 | 29127 ft | 460 kts | 86° |
| 2026-04-21 16:09 | 61.15640 | 71.62479 | 29128 ft | 460 kts | 86° |
| 2026-04-21 16:10 | 61.15832 | 71.75602 | 29129 ft | 460 kts | 87° |
| 2026-04-21 16:10 | 61.16009 | 71.88887 | 29132 ft | 462 kts | 87° |
| 2026-04-21 16:11 | 61.16174 | 72.02119 | 29138 ft | 462 kts | 87° |
| 2026-04-21 16:11 | 61.16328 | 72.15428 | 29140 ft | 463 kts | 87° |
| 2026-04-21 16:12 | 61.16444 | 72.26439 | 29143 ft | 463 kts | 87° |
| 2026-04-21 16:12 | 61.16593 | 72.41943 | 29147 ft | 463 kts | 86° |
| 2026-04-21 16:13 | 61.16705 | 72.55169 | 29149 ft | 463 kts | 86° |
| 2026-04-21 16:13 | 61.16808 | 72.68331 | 29149 ft | 465 kts | 87° |
| 2026-04-21 16:14 | 61.16893 | 72.81665 | 29155 ft | 464 kts | 87° |
| 2026-04-21 16:14 | 61.16959 | 72.94978 | 29157 ft | 464 kts | 88° |
| 2026-04-21 16:15 | 61.17018 | 73.08375 | 29160 ft | 464 kts | 87° |
| 2026-04-21 16:15 | 61.17070 | 73.21697 | 29161 ft | 465 kts | 87° |
| 2026-04-21 16:16 | 61.17126 | 73.47343 | 29171 ft | 465 kts | 87° |
| 2026-04-21 16:16 | 61.17137 | 73.60680 | 29173 ft | 465 kts | 86° |
| 2026-04-21 16:17 | 61.17137 | 73.74037 | 29171 ft | 465 kts | 88° |
| 2026-04-21 16:17 | 61.17120 | 73.87373 | 29176 ft | 466 kts | 87° |
| 2026-04-21 16:18 | 61.17093 | 74.00806 | 29176 ft | 466 kts | 87° |
| 2026-04-21 16:18 | 61.17051 | 74.14106 | 29178 ft | 466 kts | 87° |
| 2026-04-21 16:19 | 61.16995 | 74.27519 | 29177 ft | 466 kts | 87° |
| 2026-04-21 16:19 | 61.16938 | 74.38698 | 29180 ft | 466 kts | 87° |
| 2026-04-21 16:20 | 61.16844 | 74.54269 | 29183 ft | 466 kts | 86° |
| 2026-04-21 16:20 | 61.16749 | 74.67654 | 29189 ft | 466 kts | 87° |
| 2026-04-21 16:21 | 61.16716 | 74.72102 | 29196 ft | 466 kts | 87° |
| 2026-04-21 16:21 | 61.16604 | 74.85417 | 28922 ft | 465 kts | 87° |
| 2026-04-21 16:21 | 61.16561 | 74.89959 | 28338 ft | 471 kts | 87° |